Time;durP1;ratioP1;P1;durP2;ratioP2;P2;SDS_P1;SDS_P2;PMS_P1;PMS_P2;Temp;Humidity;BMP_temperature;BMP_pressure;BME280_temperature;BME280_humidity;BME280_pressure;Samples;Min_cycle;Max_cycle;Signal;HPM_P1;HPM_P2
2022/09/04 00:00:21;;;;;;;;;;;18.10;74.00;;;;;;5029648;28;19924;-80
2022/09/04 00:02:49;;;;;;;;;;;18.10;74.40;;;;;;5027258;28;19917;-80
2022/09/04 00:05:24;;;;;;;;;;;18.10;74.30;;;;;;5042865;28;19926;-80
2022/09/04 00:08:10;;;;;;;;;;;18.10;74.50;;;;;;5031835;28;19949;-80
2022/09/04 00:10:36;;;;;;;;;;;18.00;74.20;;;;;;5045883;28;19959;-80
2022/09/04 00:13:21;;;;;;;;;;;18.00;74.40;;;;;;5028771;28;19920;-79
2022/09/04 00:16:03;;;;;;;;;;;18.00;74.80;;;;;;5025118;28;19928;-78
2022/09/04 00:18:47;;;;;;;;;;;17.90;75.20;;;;;;5045581;28;19913;-80
2022/09/04 00:21:25;;;;;;;;;;;17.90;74.80;;;;;;5039514;28;19987;-80
2022/09/04 00:23:54;;;;;;;;;;;17.90;74.90;;;;;;5028009;28;20372;-80
2022/09/04 00:26:36;;;;;;;;;;;17.90;75.30;;;;;;5029965;28;20439;-79
2022/09/04 00:29:04;;;;;;;;;;;17.80;75.30;;;;;;5029302;28;19913;-80
2022/09/04 00:31:37;;;;;;;;;;;17.80;75.40;;;;;;5034806;28;19913;-79
2022/09/04 00:34:21;;;;;;;;;;;17.90;75.40;;;;;;5031891;28;19913;-80
2022/09/04 00:36:49;;;;;;;;;;;17.80;75.30;;;;;;5029649;28;19955;-80
2022/09/04 00:39:17;;;;;;;;;;;17.90;74.80;;;;;;5048502;28;19943;-79
2022/09/04 00:42:01;;;;;;;;;;;17.80;75.20;;;;;;5047469;28;19924;-80
2022/09/04 00:44:46;;;;;;;;;;;17.90;75.10;;;;;;5047504;28;19914;-80
2022/09/04 00:47:20;;;;;;;;;;;17.80;74.90;;;;;;5051404;28;19920;-80
2022/09/04 00:49:59;;;;;;;;;;;17.70;75.00;;;;;;5052821;28;19921;-80
2022/09/04 00:52:31;;;;;;;;;;;17.60;75.50;;;;;;5036777;28;19925;-79
2022/09/04 00:55:15;;;;;;;;;;;17.60;75.50;;;;;;5049668;28;19916;-80
2022/09/04 00:57:50;;;;;;;;;;;17.60;75.30;;;;;;5049788;28;20554;-80
2022/09/04 01:00:19;;;;;;;;;;;17.50;75.20;;;;;;5033202;28;20577;-78
2022/09/04 01:02:55;;;;;;;;;;;17.50;75.50;;;;;;5032871;28;19917;-80
2022/09/04 01:05:30;;;;;;;;;;;17.30;75.60;;;;;;5029850;28;19975;-79
2022/09/04 01:08:06;;;;;;;;;;;17.30;75.60;;;;;;5045335;28;19921;-78
2022/09/04 01:10:31;;;;;;;;;;;17.30;76.10;;;;;;5031307;28;19913;-80
2022/09/04 01:13:17;;;;;;;;;;;17.30;75.90;;;;;;5046426;28;19924;-80
2022/09/04 01:15:42;;;;;;;;;;;17.30;75.90;;;;;;5045125;28;19913;-79
2022/09/04 01:18:17;;;;;;;;;;;17.20;75.90;;;;;;5031620;28;20229;-79
2022/09/04 01:21:14;;;;;;;;;;;17.30;75.80;;;;;;5026764;28;19921;-80
2022/09/04 01:24:05;;;;;;;;;;;17.30;75.60;;;;;;5006806;28;19913;-79
2022/09/04 01:26:53;;;;;;;;;;;17.20;75.30;;;;;;5043817;28;19917;-80
2022/09/04 01:29:35;;;;;;;;;;;17.30;75.20;;;;;;5029505;28;20319;-80
2022/09/04 01:32:07;;;;;;;;;;;17.20;75.40;;;;;;5040546;28;19921;-79
2022/09/04 01:34:33;;;;;;;;;;;17.20;75.50;;;;;;5043928;28;19941;-80
2022/09/04 01:36:58;;;;;;;;;;;17.10;75.80;;;;;;5033256;28;19936;-80
2022/09/04 01:39:25;;;;;;;;;;;17.20;75.60;;;;;;5033857;28;20915;-80
2022/09/04 01:42:10;;;;;;;;;;;17.10;75.40;;;;;;5036887;28;19988;-79
2022/09/04 01:44:35;;;;;;;;;;;17.10;75.20;;;;;;5033482;28;19917;-80
2022/09/04 01:47:13;;;;;;;;;;;17.10;75.20;;;;;;5038445;28;19920;-80
2022/09/04 01:49:44;;;;;;;;;;;17.10;75.30;;;;;;5050984;28;20072;-79
2022/09/04 01:52:10;;;;;;;;;;;17.10;75.10;;;;;;5047588;28;19925;-79
2022/09/04 01:54:41;;;;;;;;;;;17.10;74.90;;;;;;5032443;28;20012;-79
2022/09/04 01:57:12;;;;;;;;;;;17.10;74.60;;;;;;5034859;28;19925;-80
2022/09/04 01:59:50;;;;;;;;;;;17.00;74.70;;;;;;5047315;28;19987;-80
2022/09/04 02:02:35;;;;;;;;;;;17.00;74.90;;;;;;5031081;28;19917;-80
2022/09/04 02:05:00;;;;;;;;;;;17.10;74.50;;;;;;5033811;28;19917;-80
2022/09/04 02:07:25;;;;;;;;;;;17.00;74.40;;;;;;5034623;28;19917;-80
2022/09/04 02:09:59;;;;;;;;;;;17.00;74.40;;;;;;5031507;28;19953;-80
2022/09/04 02:12:34;;;;;;;;;;;17.00;74.30;;;;;;5031103;28;19937;-80
2022/09/04 02:15:06;;;;;;;;;;;17.00;74.70;;;;;;5049827;28;19913;-80
2022/09/04 02:17:54;;;;;;;;;;;16.90;74.70;;;;;;5035107;28;20381;-80
2022/09/04 02:20:22;;;;;;;;;;;16.90;75.00;;;;;;5034709;28;19924;-80
2022/09/04 02:22:47;;;;;;;;;;;16.90;74.80;;;;;;5051541;28;20547;-80
2022/09/04 02:25:16;;;;;;;;;;;16.90;74.00;;;;;;5037003;28;19913;-80
2022/09/04 02:27:53;;;;;;;;;;;16.90;73.30;;;;;;5032219;28;20031;-80
2022/09/04 02:30:19;;;;;;;;;;;16.90;73.40;;;;;;5032173;28;20067;-78
2022/09/04 02:32:58;;;;;;;;;;;16.90;73.80;;;;;;5031029;28;19940;-80
2022/09/04 02:35:44;;;;;;;;;;;16.90;74.00;;;;;;5035230;28;19913;-80
2022/09/04 02:38:22;;;;;;;;;;;16.80;73.80;;;;;;5032618;28;20672;-80
2022/09/04 02:40:54;;;;;;;;;;;16.90;74.30;;;;;;5032746;28;19921;-80
2022/09/04 02:43:25;;;;;;;;;;;16.80;74.10;;;;;;5031393;28;19920;-80
2022/09/04 02:45:58;;;;;;;;;;;16.70;74.50;;;;;;5031699;28;19913;-78
2022/09/04 02:48:33;;;;;;;;;;;16.70;74.50;;;;;;5030285;28;19921;-79
2022/09/04 02:51:05;;;;;;;;;;;16.70;74.90;;;;;;5027586;28;19916;-77
2022/09/04 02:53:48;;;;;;;;;;;16.70;75.00;;;;;;5047005;28;19913;-78
2022/09/04 02:56:33;;;;;;;;;;;16.60;74.90;;;;;;5036223;28;19913;-78
2022/09/04 02:59:20;;;;;;;;;;;16.60;74.90;;;;;;5049099;28;19943;-79
2022/09/04 03:01:52;;;;;;;;;;;16.60;75.00;;;;;;5033366;28;19933;-78
2022/09/04 03:04:32;;;;;;;;;;;16.60;75.00;;;;;;5033851;28;19917;-77
2022/09/04 03:07:16;;;;;;;;;;;16.60;75.40;;;;;;5031696;28;19936;-78
2022/09/04 03:10:01;;;;;;;;;;;16.60;74.60;;;;;;5045162;28;19917;-78
2022/09/04 03:12:38;;;;;;;;;;;16.60;74.50;;;;;;5027425;28;19928;-77
2022/09/04 03:15:08;;;;;;;;;;;16.60;74.50;;;;;;5049525;28;19957;-79
2022/09/04 03:17:33;;;;;;;;;;;16.70;74.30;;;;;;5033713;28;19936;-79
2022/09/04 03:20:02;;;;;;;;;;;16.60;74.50;;;;;;5031941;28;19917;-79
2022/09/04 03:22:57;;;;;;;;;;;16.50;74.80;;;;;;5029656;28;19980;-79
2022/09/04 03:25:22;;;;;;;;;;;16.40;75.10;;;;;;4993307;28;19914;-79
2022/09/04 03:27:48;;;;;;;;;;;16.30;75.90;;;;;;5030309;28;19966;-79
2022/09/04 03:30:13;;;;;;;;;;;16.40;75.60;;;;;;5028430;28;19936;-79
2022/09/04 03:32:58;;;;;;;;;;;16.30;76.00;;;;;;5030284;28;19913;-79
2022/09/04 03:35:26;;;;;;;;;;;16.40;75.40;;;;;;5045749;28;20308;-78
2022/09/04 03:37:57;;;;;;;;;;;16.30;75.60;;;;;;5032494;28;19996;-79
2022/09/04 03:40:25;;;;;;;;;;;16.30;75.80;;;;;;5037760;28;19924;-78
2022/09/04 03:42:55;;;;;;;;;;;16.30;75.80;;;;;;5058814;28;19917;-77
2022/09/04 03:45:37;;;;;;;;;;;16.30;75.60;;;;;;5035083;28;19913;-78
2022/09/04 03:48:11;;;;;;;;;;;16.30;75.20;;;;;;5029069;28;20379;-79
2022/09/04 03:50:42;;;;;;;;;;;16.30;75.80;;;;;;5031986;28;20346;-79
2022/09/04 03:53:18;;;;;;;;;;;16.30;75.30;;;;;;5032879;28;19917;-79
2022/09/04 03:55:43;;;;;;;;;;;16.20;75.20;;;;;;5045236;28;19921;-78
2022/09/04 03:58:19;;;;;;;;;;;16.20;74.90;;;;;;5033632;28;19945;-78
2022/09/04 04:00:50;;;;;;;;;;;16.20;75.40;;;;;;5032048;28;20285;-79
2022/09/04 04:03:27;;;;;;;;;;;16.10;76.10;;;;;;5035378;28;19917;-79
2022/09/04 04:06:01;;;;;;;;;;;16.10;75.90;;;;;;5030740;28;19909;-78
2022/09/04 04:08:44;;;;;;;;;;;16.20;75.60;;;;;;5048157;28;20007;-79
2022/09/04 04:11:14;;;;;;;;;;;16.30;74.90;;;;;;5035969;28;19913;-76
2022/09/04 04:13:59;;;;;;;;;;;16.10;75.40;;;;;;5049563;28;19960;-77
2022/09/04 04:16:24;;;;;;;;;;;16.20;74.80;;;;;;5038453;28;19928;-79
2022/09/04 04:18:52;;;;;;;;;;;16.10;74.80;;;;;;5031641;28;19909;-79
2022/09/04 04:21:32;;;;;;;;;;;16.00;75.10;;;;;;5038461;28;20433;-77
2022/09/04 04:23:57;;;;;;;;;;;16.00;75.80;;;;;;5034663;28;19920;-79
2022/09/04 04:26:30;;;;;;;;;;;15.90;75.60;;;;;;5033190;28;19964;-79
2022/09/04 04:29:11;;;;;;;;;;;15.80;75.80;;;;;;5028507;28;19913;-78
2022/09/04 04:31:43;;;;;;;;;;;15.80;76.10;;;;;;5033806;28;19921;-79
2022/09/04 04:34:12;;;;;;;;;;;15.80;76.10;;;;;;5045347;28;19914;-79
2022/09/04 04:36:54;;;;;;;;;;;15.70;76.30;;;;;;5031226;28;20438;-79
2022/09/04 04:39:20;;;;;;;;;;;15.60;76.80;;;;;;5028535;28;19917;-79
2022/09/04 04:42:04;;;;;;;;;;;15.50;77.40;;;;;;5035932;28;19971;-78
2022/09/04 04:47:33;;;;;;;;;;;15.60;77.80;;;;;;5032766;28;19936;-79
2022/09/04 04:50:18;;;;;;;;;;;15.60;77.80;;;;;;5033499;28;20395;-79
2022/09/04 04:52:48;;;;;;;;;;;15.70;77.30;;;;;;5038304;28;19927;-78
2022/09/04 04:55:31;;;;;;;;;;;15.70;77.10;;;;;;5034700;28;19917;-79
2022/09/04 04:57:59;;;;;;;;;;;15.80;77.00;;;;;;5036455;28;19917;-79
2022/09/04 05:00:30;;;;;;;;;;;15.80;76.60;;;;;;5034575;28;19925;-79
2022/09/04 05:02:56;;;;;;;;;;;15.70;76.80;;;;;;5031297;28;19920;-77
2022/09/04 05:05:34;;;;;;;;;;;15.80;76.60;;;;;;5032485;28;19917;-78
2022/09/04 05:08:08;;;;;;;;;;;15.80;76.80;;;;;;5048930;28;19913;-79
2022/09/04 05:10:34;;;;;;;;;;;15.70;76.70;;;;;;5032153;28;20376;-78
2022/09/04 05:13:19;;;;;;;;;;;15.70;76.90;;;;;;5030385;28;19913;-79
2022/09/04 05:15:54;;;;;;;;;;;15.60;76.80;;;;;;5037155;28;19924;-78
2022/09/04 05:18:29;;;;;;;;;;;15.60;77.20;;;;;;5048215;28;19920;-79
2022/09/04 05:20:54;;;;;;;;;;;15.60;77.30;;;;;;5034171;28;19917;-79
2022/09/04 05:23:32;;;;;;;;;;;15.70;77.00;;;;;;5033805;28;19919;-79
2022/09/04 05:26:06;;;;;;;;;;;15.70;77.10;;;;;;5035751;28;19917;-78
2022/09/04 05:28:32;;;;;;;;;;;15.70;77.20;;;;;;5048664;28;19921;-77
2022/09/04 05:30:57;;;;;;;;;;;15.70;77.40;;;;;;5041674;28;19920;-79
2022/09/04 05:33:35;;;;;;;;;;;15.70;77.30;;;;;;5035832;28;19913;-78
2022/09/04 05:36:07;;;;;;;;;;;15.60;77.70;;;;;;5036880;28;19913;-79
2022/09/04 05:38:39;;;;;;;;;;;15.80;78.10;;;;;;5038474;28;19917;-78
2022/09/04 05:41:06;;;;;;;;;;;15.90;77.80;;;;;;5035941;28;19925;-79
2022/09/04 05:43:50;;;;;;;;;;;16.00;76.90;;;;;;5053161;28;20003;-79
2022/09/04 05:46:27;;;;;;;;;;;16.00;76.50;;;;;;5037799;28;20504;-79
2022/09/04 05:48:56;;;;;;;;;;;16.10;75.70;;;;;;5036275;28;19999;-79
2022/09/04 05:51:31;;;;;;;;;;;16.20;75.50;;;;;;5034641;28;20307;-78
2022/09/04 05:54:09;;;;;;;;;;;16.30;75.80;;;;;;5032296;28;19973;-79
2022/09/04 05:56:59;;;;;;;;;;;16.30;75.80;;;;;;5035616;28;19943;-79
2022/09/04 05:59:36;;;;;;;;;;;16.30;76.30;;;;;;5047535;28;19925;-78
2022/09/04 06:02:21;;;;;;;;;;;16.40;76.10;;;;;;5044439;28;19948;-78
2022/09/04 06:04:58;;;;;;;;;;;16.50;76.00;;;;;;5031301;28;19925;-77
2022/09/04 06:07:42;;;;;;;;;;;16.50;75.60;;;;;;5030868;28;20015;-79
2022/09/04 06:10:26;;;;;;;;;;;16.50;75.80;;;;;;5032200;28;19913;-79
2022/09/04 06:12:51;;;;;;;;;;;16.60;76.70;;;;;;5048152;28;19975;-79
2022/09/04 06:15:17;;;;;;;;;;;16.70;77.40;;;;;;5036283;28;19975;-78
2022/09/04 06:17:45;;;;;;;;;;;16.60;76.80;;;;;;5032934;28;19917;-78
2022/09/04 06:20:27;;;;;;;;;;;16.70;76.90;;;;;;5050974;28;19917;-78
2022/09/04 06:23:08;;;;;;;;;;;16.70;77.30;;;;;;5033256;28;19971;-79
2022/09/04 06:25:45;;;;;;;;;;;16.80;77.40;;;;;;5047945;28;19917;-78
2022/09/04 06:28:15;;;;;;;;;;;16.90;77.90;;;;;;5046006;28;19924;-79
2022/09/04 06:30:44;;;;;;;;;;;17.00;78.00;;;;;;5043770;28;20461;-79
2022/09/04 06:33:23;;;;;;;;;;;17.10;77.20;;;;;;5032937;28;19913;-79
2022/09/04 06:35:53;;;;;;;;;;;17.00;76.10;;;;;;5030292;28;19995;-78
2022/09/04 06:38:22;;;;;;;;;;;17.00;75.60;;;;;;5030681;28;19976;-79
2022/09/04 06:41:07;;;;;;;;;;;17.00;75.60;;;;;;5026090;28;19921;-79
2022/09/04 06:43:48;;;;;;;;;;;17.10;75.50;;;;;;5042923;28;19966;-78
2022/09/04 06:46:26;;;;;;;;;;;17.20;75.60;;;;;;5027913;28;19913;-78
2022/09/04 06:48:57;;;;;;;;;;;17.30;76.00;;;;;;5024968;28;19924;-79
2022/09/04 06:51:23;;;;;;;;;;;17.40;76.40;;;;;;5042436;28;20277;-78
2022/09/04 06:53:55;;;;;;;;;;;17.40;76.40;;;;;;5029147;28;19913;-78
2022/09/04 06:56:36;;;;;;;;;;;17.50;76.30;;;;;;5028283;28;19921;-78
2022/09/04 06:59:26;;;;;;;;;;;17.60;76.60;;;;;;5045697;28;19913;-79
2022/09/04 07:02:16;;;;;;;;;;;17.70;76.50;;;;;;5025485;28;20019;-77
2022/09/04 07:05:00;;;;;;;;;;;17.80;76.50;;;;;;5022513;28;20008;-79
2022/09/04 07:07:30;;;;;;;;;;;17.90;76.40;;;;;;5029500;28;19913;-83
2022/09/04 07:09:58;;;;;;;;;;;18.10;75.90;;;;;;5030568;28;19917;-79
2022/09/04 07:12:26;;;;;;;;;;;18.20;75.90;;;;;;5030257;28;19949;-79
2022/09/04 07:14:55;;;;;;;;;;;18.10;75.90;;;;;;5047385;28;19955;-79
2022/09/04 07:17:20;;;;;;;;;;;18.20;76.00;;;;;;5045627;28;20279;-79
2022/09/04 07:20:05;;;;;;;;;;;18.30;75.90;;;;;;5037535;28;19936;-80
2022/09/04 07:22:42;;;;;;;;;;;18.50;76.20;;;;;;5037320;28;19913;-78
2022/09/04 07:25:16;;;;;;;;;;;18.60;76.20;;;;;;5046134;28;21250;-79
2022/09/04 07:27:51;;;;;;;;;;;18.80;76.30;;;;;;5036301;28;19917;-79
2022/09/04 07:30:18;;;;;;;;;;;18.80;76.50;;;;;;5038394;28;20008;-80
2022/09/04 07:32:44;;;;;;;;;;;19.00;76.40;;;;;;5035929;28;19913;-80
2022/09/04 07:35:14;;;;;;;;;;;19.00;76.20;;;;;;5038174;28;19920;-78
2022/09/04 07:37:46;;;;;;;;;;;19.30;75.90;;;;;;5044551;28;19953;-79
2022/09/04 07:40:16;;;;;;;;;;;19.40;75.80;;;;;;5040047;28;19929;-79
2022/09/04 07:42:47;;;;;;;;;;;19.30;75.50;;;;;;5026546;28;19917;-81
2022/09/04 07:45:28;;;;;;;;;;;19.30;75.90;;;;;;5032526;28;20427;-78
2022/09/04 07:47:58;;;;;;;;;;;19.50;75.90;;;;;;5036223;28;20005;-81
2022/09/04 07:50:25;;;;;;;;;;;19.60;75.70;;;;;;5030721;28;19921;-81
2022/09/04 07:52:59;;;;;;;;;;;19.60;75.20;;;;;;5034627;28;19925;-80
2022/09/04 07:55:32;;;;;;;;;;;19.70;75.20;;;;;;5036574;28;19956;-81
2022/09/04 07:58:19;;;;;;;;;;;19.70;75.00;;;;;;5040537;28;20003;-81
2022/09/04 08:00:47;;;;;;;;;;;19.70;75.30;;;;;;5035964;28;20005;-81
2022/09/04 08:03:17;;;;;;;;;;;19.70;75.30;;;;;;5033523;28;20288;-81
2022/09/04 08:06:02;;;;;;;;;;;19.70;75.30;;;;;;5044100;28;19924;-81
2022/09/04 08:08:41;;;;;;;;;;;19.80;75.20;;;;;;5046033;28;19919;-81
2022/09/04 08:11:09;;;;;;;;;;;19.80;75.10;;;;;;5029226;28;19921;-81
2022/09/04 08:13:44;;;;;;;;;;;20.10;74.50;;;;;;5033554;28;19929;-81
2022/09/04 08:16:10;;;;;;;;;;;20.10;74.40;;;;;;5049726;28;19919;-81
2022/09/04 08:18:46;;;;;;;;;;;20.20;74.10;;;;;;5039593;28;19921;-81
2022/09/04 08:21:22;;;;;;;;;;;20.50;73.20;;;;;;5034674;28;19917;-81
2022/09/04 08:24:07;;;;;;;;;;;20.40;73.50;;;;;;5034481;28;20371;-80
2022/09/04 08:26:39;;;;;;;;;;;20.30;73.50;;;;;;5047612;28;20003;-81
2022/09/04 08:29:04;;;;;;;;;;;20.50;73.30;;;;;;5032587;28;20307;-80
2022/09/04 08:31:31;;;;;;;;;;;20.50;73.20;;;;;;5031799;28;19996;-79
2022/09/04 08:34:14;;;;;;;;;;;20.50;73.50;;;;;;5030492;28;19995;-82
2022/09/04 08:37:09;;;;;;;;;;;20.90;72.60;;;;;;5045989;28;20438;-80
2022/09/04 08:39:53;;;;;;;;;;;21.00;72.00;;;;;;5019339;28;19925;-79
2022/09/04 08:42:45;;;;;;;;;;;20.90;71.90;;;;;;5062301;28;20303;-79
2022/09/04 08:45:26;;;;;;;;;;;20.80;72.00;;;;;;5028739;28;20380;-79
2022/09/04 08:47:55;;;;;;;;;;;20.80;72.10;;;;;;5033215;28;19923;-80
2022/09/04 08:50:43;;;;;;;;;;;21.00;72.20;;;;;;5056372;28;19968;-80
2022/09/04 08:53:11;;;;;;;;;;;21.10;70.80;;;;;;5041304;28;19917;-80
2022/09/04 08:56:09;;;;;;;;;;;21.10;70.90;;;;;;5054835;28;19920;-80
2022/09/04 08:58:35;;;;;;;;;;;21.30;70.50;;;;;;5016414;28;20402;-79
2022/09/04 09:01:00;;;;;;;;;;;21.50;69.70;;;;;;5040234;28;19917;-79
2022/09/04 09:03:39;;;;;;;;;;;21.60;69.80;;;;;;5036712;28;19917;-81
2022/09/04 09:06:20;;;;;;;;;;;21.60;69.90;;;;;;5039171;28;19996;-81
2022/09/04 09:09:13;;;;;;;;;;;21.80;69.30;;;;;;5029602;28;19921;-79
2022/09/04 09:11:48;;;;;;;;;;;21.90;68.90;;;;;;5031748;28;20339;-78
2022/09/04 09:14:37;;;;;;;;;;;22.10;68.00;;;;;;5049937;28;19996;-81
2022/09/04 09:17:26;;;;;;;;;;;22.20;68.10;;;;;;5049639;28;20354;-80
2022/09/04 09:19:58;;;;;;;;;;;22.20;68.10;;;;;;5029253;28;19921;-79
2022/09/04 09:22:23;;;;;;;;;;;22.40;67.60;;;;;;5030453;28;19920;-78
2022/09/04 09:24:49;;;;;;;;;;;22.60;66.00;;;;;;5030312;28;19913;-78
2022/09/04 09:27:40;;;;;;;;;;;22.50;66.70;;;;;;5033134;28;19917;-79
2022/09/04 09:30:06;;;;;;;;;;;22.50;67.60;;;;;;5046671;28;19914;-78
2022/09/04 09:32:51;;;;;;;;;;;22.60;66.90;;;;;;5031673;28;19936;-79
2022/09/04 09:35:21;;;;;;;;;;;22.50;67.00;;;;;;5028537;28;19924;-80
2022/09/04 09:38:05;;;;;;;;;;;22.60;67.30;;;;;;5046242;28;19921;-80
2022/09/04 09:40:30;;;;;;;;;;;22.90;65.50;;;;;;5045249;28;19917;-80
2022/09/04 09:43:02;;;;;;;;;;;22.90;66.40;;;;;;5041001;28;19973;-79
2022/09/04 09:45:46;;;;;;;;;;;23.10;64.80;;;;;;5044528;28;19919;-81
2022/09/04 09:48:27;;;;;;;;;;;23.20;64.60;;;;;;5055823;28;20450;-81
2022/09/04 09:51:06;;;;;;;;;;;23.10;64.80;;;;;;5053427;28;20288;-82
2022/09/04 09:53:50;;;;;;;;;;;23.10;64.80;;;;;;5041760;28;19924;-82
2022/09/04 09:56:40;;;;;;;;;;;23.20;64.80;;;;;;5037844;28;19917;-81
2022/09/04 09:59:28;;;;;;;;;;;23.20;65.30;;;;;;5035907;28;19977;-80
2022/09/04 10:02:07;;;;;;;;;;;23.30;65.60;;;;;;5048717;28;19921;-81
2022/09/04 10:04:33;;;;;;;;;;;23.50;64.60;;;;;;5032788;28;19955;-81
2022/09/04 10:06:59;;;;;;;;;;;23.40;64.50;;;;;;5037881;28;19913;-80
2022/09/04 10:09:36;;;;;;;;;;;23.40;64.60;;;;;;5064210;28;19916;-81
2022/09/04 10:12:27;;;;;;;;;;;23.50;63.90;;;;;;5041818;28;19917;-80
2022/09/04 10:14:58;;;;;;;;;;;23.50;63.20;;;;;;5038008;28;19909;-81
2022/09/04 10:17:34;;;;;;;;;;;23.70;62.70;;;;;;5043526;28;19917;-82
2022/09/04 10:20:19;;;;;;;;;;;23.60;63.00;;;;;;5039720;28;19913;-82
2022/09/04 10:23:03;;;;;;;;;;;23.60;63.70;;;;;;5039488;28;20023;-81
2022/09/04 10:25:37;;;;;;;;;;;23.90;62.40;;;;;;5044859;28;19917;-82
2022/09/04 10:28:06;;;;;;;;;;;24.00;63.10;;;;;;5059114;28;19984;-82
2022/09/04 10:30:34;;;;;;;;;;;24.10;62.30;;;;;;5041650;28;20419;-82
2022/09/04 10:33:12;;;;;;;;;;;24.30;61.40;;;;;;5060777;28;19948;-83
2022/09/04 10:35:47;;;;;;;;;;;24.30;61.00;;;;;;5059183;28;19909;-82
2022/09/04 10:38:20;;;;;;;;;;;24.40;61.50;;;;;;5040183;28;19913;-82
2022/09/04 10:40:54;;;;;;;;;;;24.50;60.00;;;;;;5038019;28;20534;-82
2022/09/04 10:43:30;;;;;;;;;;;24.50;60.80;;;;;;5040688;28;19913;-82
2022/09/04 10:45:59;;;;;;;;;;;24.50;61.00;;;;;;5038029;28;19913;-83
2022/09/04 10:48:28;;;;;;;;;;;24.60;61.00;;;;;;5056499;28;19913;-82
2022/09/04 10:51:07;;;;;;;;;;;24.90;59.60;;;;;;5046939;28;19925;-83
2022/09/04 10:53:35;;;;;;;;;;;25.00;60.00;;;;;;5012978;22;21408;-81
2022/09/04 10:56:07;;;;;;;;;;;25.10;59.00;;;;;;5046541;28;19917;-83
2022/09/04 10:58:43;;;;;;;;;;;24.60;59.30;;;;;;5046093;28;19940;-83
2022/09/04 11:01:12;;;;;;;;;;;24.40;60.10;;;;;;5050039;28;20497;-82
2022/09/04 11:03:50;;;;;;;;;;;24.60;59.90;;;;;;5047649;28;19989;-83
2022/09/04 11:06:31;;;;;;;;;;;24.30;60.10;;;;;;5054111;28;19920;-83
2022/09/04 11:09:03;;;;;;;;;;;24.20;60.30;;;;;;5047049;28;19919;-82
2022/09/04 11:11:39;;;;;;;;;;;24.30;59.50;;;;;;5053149;28;20395;-83
2022/09/04 11:14:27;;;;;;;;;;;24.40;59.70;;;;;;5045293;28;19924;-82
2022/09/04 11:16:56;;;;;;;;;;;24.30;59.20;;;;;;5052246;28;20349;-82
2022/09/04 11:19:27;;;;;;;;;;;24.50;59.80;;;;;;5051643;28;19913;-81
2022/09/04 11:22:13;;;;;;;;;;;24.50;59.40;;;;;;5051701;28;19920;-83
2022/09/04 11:24:54;;;;;;;;;;;24.50;59.70;;;;;;5053237;28;19912;-83
2022/09/04 11:27:32;;;;;;;;;;;24.50;59.90;;;;;;5047486;28;19921;-82
2022/09/04 11:30:04;;;;;;;;;;;24.50;59.90;;;;;;5046905;28;19978;-83
2022/09/04 11:32:39;;;;;;;;;;;24.40;60.00;;;;;;5054042;28;20397;-83
2022/09/04 11:35:25;;;;;;;;;;;24.50;59.80;;;;;;5054998;28;19913;-83
2022/09/04 11:37:57;;;;;;;;;;;24.60;59.60;;;;;;5053207;28;19959;-83
2022/09/04 11:40:45;;;;;;;;;;;24.80;58.20;;;;;;5054563;28;19916;-84
2022/09/04 11:43:18;;;;;;;;;;;24.80;57.00;;;;;;5051837;28;19923;-86
2022/09/04 11:45:58;;;;;;;;;;;25.00;56.40;;;;;;5052667;28;19916;-81
2022/09/04 11:48:30;;;;;;;;;;;25.10;56.70;;;;;;5057391;28;19913;-83
2022/09/04 11:51:18;;;;;;;;;;;25.20;55.80;;;;;;5046843;28;19913;-88
2022/09/04 11:54:01;;;;;;;;;;;25.30;55.70;;;;;;5044319;28;19912;-84
2022/09/04 11:56:33;;;;;;;;;;;25.50;55.50;;;;;;5056387;28;20306;-83
2022/09/04 11:59:14;;;;;;;;;;;25.80;54.80;;;;;;5063636;28;19917;-83
2022/09/04 12:01:52;;;;;;;;;;;25.70;55.90;;;;;;5050998;28;19923;-83
2022/09/04 12:04:24;;;;;;;;;;;25.50;55.60;;;;;;5053877;28;19929;-84
2022/09/04 12:06:50;;;;;;;;;;;25.50;56.00;;;;;;5051667;28;19917;-83
2022/09/04 12:09:30;;;;;;;;;;;25.50;55.10;;;;;;5061208;28;19913;-83
2022/09/04 12:11:59;;;;;;;;;;;25.60;54.60;;;;;;5053834;28;20012;-85
2022/09/04 12:14:46;;;;;;;;;;;25.50;55.10;;;;;;5054299;28;19992;-84
2022/09/04 12:17:14;;;;;;;;;;;25.40;54.50;;;;;;5050026;28;19913;-83
2022/09/04 12:19:58;;;;;;;;;;;25.50;55.20;;;;;;5034937;28;19947;-82
2022/09/04 12:22:30;;;;;;;;;;;25.50;54.30;;;;;;5061322;28;19917;-82
2022/09/04 12:25:01;;;;;;;;;;;25.50;54.70;;;;;;5055441;28;20387;-83
2022/09/04 12:27:42;;;;;;;;;;;25.60;54.30;;;;;;5046846;28;19921;-83
2022/09/04 12:30:19;;;;;;;;;;;25.60;54.40;;;;;;5047898;28;19939;-83
2022/09/04 12:33:03;;;;;;;;;;;25.80;52.50;;;;;;5056035;28;19930;-82
2022/09/04 12:35:38;;;;;;;;;;;25.90;50.90;;;;;;5067996;28;19920;-83
2022/09/04 12:38:24;;;;;;;;;;;26.00;52.10;;;;;;5073032;28;19923;-83
2022/09/04 12:40:59;;;;;;;;;;;25.90;52.80;;;;;;5053511;28;19921;-83
2022/09/04 12:43:33;;;;;;;;;;;25.80;53.30;;;;;;5060412;28;19913;-83
2022/09/04 12:46:23;;;;;;;;;;;25.80;54.10;;;;;;5059949;28;19928;-83
2022/09/04 12:49:26;;;;;;;;;;;25.90;53.70;;;;;;5058329;28;19921;-83
2022/09/04 12:52:02;;;;;;;;;;;26.10;53.60;;;;;;5060780;28;19919;-83
2022/09/04 12:54:39;;;;;;;;;;;26.10;52.80;;;;;;5058939;28;19974;-83
2022/09/04 12:57:24;;;;;;;;;;;26.00;51.00;;;;;;5056042;28;19917;-83
2022/09/04 12:59:51;;;;;;;;;;;26.30;50.50;;;;;;5059256;28;19921;-83
2022/09/04 13:02:19;;;;;;;;;;;26.20;51.40;;;;;;5054821;28;19913;-82
2022/09/04 13:05:03;;;;;;;;;;;26.10;52.00;;;;;;5058758;28;19963;-83
2022/09/04 13:07:39;;;;;;;;;;;26.10;51.60;;;;;;5056315;28;19952;-83
2022/09/04 13:10:24;;;;;;;;;;;26.10;51.90;;;;;;5059060;28;19917;-83
2022/09/04 13:13:08;;;;;;;;;;;26.30;51.60;;;;;;5056462;28;20241;-83
2022/09/04 13:16:12;;;;;;;;;;;26.20;51.70;;;;;;5059105;28;19944;-83
2022/09/04 13:18:59;;;;;;;;;;;26.30;51.60;;;;;;5021977;28;19921;-80
2022/09/04 13:21:33;;;;;;;;;;;26.60;50.20;;;;;;5038715;28;19914;-82
2022/09/04 13:23:58;;;;;;;;;;;26.50;50.60;;;;;;5041215;28;19912;-85
2022/09/04 13:26:45;;;;;;;;;;;26.50;50.50;;;;;;5051920;28;19939;-83
2022/09/04 13:29:29;;;;;;;;;;;26.50;50.60;;;;;;5054615;28;19912;-85
2022/09/04 13:32:06;;;;;;;;;;;26.50;50.60;;;;;;5054795;28;19932;-83
2022/09/04 13:34:48;;;;;;;;;;;26.50;50.60;;;;;;5047658;28;19920;-84
2022/09/04 13:37:30;;;;;;;;;;;26.50;50.20;;;;;;5052105;28;19920;-83
2022/09/04 13:40:35;;;;;;;;;;;26.30;50.90;;;;;;5063767;28;20280;-84
2022/09/04 13:43:19;;;;;;;;;;;26.10;50.70;;;;;;4985953;28;19969;-84
2022/09/04 13:45:48;;;;;;;;;;;26.00;50.90;;;;;;4958265;28;20192;-82
2022/09/04 13:48:33;;;;;;;;;;;25.80;50.90;;;;;;5008136;28;19916;-82
2022/09/04 13:51:06;;;;;;;;;;;26.20;50.60;;;;;;5039724;28;19936;-81
2022/09/04 13:53:31;;;;;;;;;;;26.20;51.70;;;;;;5037527;28;20019;-84
2022/09/04 13:55:58;;;;;;;;;;;26.30;51.10;;;;;;5056228;28;19944;-84
2022/09/04 13:58:32;;;;;;;;;;;26.30;50.10;;;;;;5056189;28;20431;-84
2022/09/04 14:00:59;;;;;;;;;;;26.40;49.30;;;;;;5051143;28;20038;-84
2022/09/04 14:03:29;;;;;;;;;;;26.30;50.30;;;;;;5051311;28;19992;-85
2022/09/04 14:05:54;;;;;;;;;;;26.30;49.40;;;;;;5053805;28;19920;-87
2022/09/04 14:08:22;;;;;;;;;;;26.40;49.50;;;;;;5048500;28;19917;-85
2022/09/04 14:10:47;;;;;;;;;;;26.30;49.40;;;;;;5047846;28;19920;-84
2022/09/04 14:13:29;;;;;;;;;;;26.20;51.50;;;;;;5042988;28;19921;-85
2022/09/04 14:16:02;;;;;;;;;;;26.00;52.30;;;;;;5051772;28;19928;-84
2022/09/04 14:18:46;;;;;;;;;;;25.90;51.80;;;;;;5065085;28;19913;-84
2022/09/04 14:21:15;;;;;;;;;;;25.90;51.30;;;;;;5056105;28;20299;-85
2022/09/04 14:23:53;;;;;;;;;;;25.90;52.20;;;;;;5064358;28;19912;-84
2022/09/04 14:26:44;;;;;;;;;;;25.80;54.80;;;;;;5057360;28;19913;-85
2022/09/04 14:29:27;;;;;;;;;;;25.80;53.40;;;;;;5053457;28;20015;-84
2022/09/04 14:32:09;;;;;;;;;;;25.90;53.10;;;;;;5051259;28;19958;-84
2022/09/04 14:34:58;;;;;;;;;;;25.90;54.10;;;;;;5051986;28;19943;-84
2022/09/04 14:37:34;;;;;;;;;;;25.80;53.70;;;;;;5046359;28;19920;-84
2022/09/04 14:40:01;;;;;;;;;;;25.70;53.80;;;;;;5041256;28;19932;-82
2022/09/04 14:42:33;;;;;;;;;;;25.70;53.30;;;;;;5045623;28;19944;-83
2022/09/04 14:45:01;;;;;;;;;;;25.80;53.60;;;;;;5047319;28;20322;-81
2022/09/04 14:47:39;;;;;;;;;;;26.00;50.70;;;;;;5061033;28;20024;-81
2022/09/04 14:50:11;;;;;;;;;;;26.00;51.10;;;;;;5052052;28;19917;-81
2022/09/04 14:52:45;;;;;;;;;;;26.00;51.10;;;;;;5049664;28;19912;-81
2022/09/04 14:55:14;;;;;;;;;;;26.00;50.80;;;;;;5052339;28;19967;-80
2022/09/04 14:57:39;;;;;;;;;;;26.00;51.10;;;;;;5044546;28;20338;-81
2022/09/04 15:00:05;;;;;;;;;;;26.00;54.00;;;;;;5043202;28;19917;-80
2022/09/04 15:02:34;;;;;;;;;;;26.00;52.90;;;;;;5050195;28;20272;-80
2022/09/04 15:05:04;;;;;;;;;;;26.00;53.10;;;;;;5050185;28;19939;-81
2022/09/04 15:07:41;;;;;;;;;;;26.10;51.80;;;;;;5052762;28;19916;-85